createdAt,value
2023-03-21T00:00:45.018Z,700
2023-03-21T00:01:44.775Z,844
2023-03-21T00:02:44.863Z,851
2023-03-21T00:03:44.878Z,862
2023-03-21T00:05:44.945Z,708
2023-03-21T00:06:44.950Z,877
2023-03-21T00:08:19.184Z,733
2023-03-21T00:09:18.108Z,831
2023-03-21T00:10:24.053Z,846
2023-03-21T00:11:18.035Z,740
2023-03-21T00:13:19.194Z,758
2023-03-21T00:14:18.101Z,775
2023-03-21T00:15:22.552Z,792
2023-03-21T00:16:24.918Z,785
2023-03-21T00:18:18.720Z,966
2023-03-21T00:19:18.619Z,935
2023-03-21T00:20:18.619Z,908
2023-03-21T00:22:06.245Z,792
2023-03-21T00:25:53.456Z,697
2023-03-21T00:26:51.067Z,773
2023-03-21T00:28:05.436Z,736
2023-03-21T00:29:51.214Z,783
2023-03-21T00:30:51.068Z,935
2023-03-21T00:31:51.075Z,895
2023-03-21T00:32:56.005Z,916
2023-03-21T00:35:05.098Z,1090
2023-03-21T00:35:58.601Z,916
2023-03-21T00:36:51.166Z,871
2023-03-21T00:37:51.013Z,950
2023-03-21T00:39:51.229Z,765
2023-03-21T00:40:51.133Z,744
2023-03-21T00:41:51.128Z,813
2023-03-21T00:42:51.016Z,803
2023-03-21T00:44:51.239Z,966
2023-03-21T00:45:51.090Z,906
2023-03-21T00:47:04.381Z,965
2023-03-21T00:47:51.153Z,813
2023-03-21T00:49:51.216Z,970
2023-03-21T00:50:51.074Z,826
2023-03-21T00:51:51.241Z,900
2023-03-21T00:52:51.020Z,983
2023-03-21T00:54:51.264Z,812
2023-03-21T00:55:51.087Z,730
2023-03-21T00:56:51.092Z,727
2023-03-21T00:57:59.756Z,782
2023-03-21T00:59:51.277Z,762
2023-03-21T01:00:51.100Z,763
2023-03-21T01:01:51.039Z,744
2023-03-21T01:02:54.752Z,730
2023-03-21T01:04:51.201Z,793
2023-03-21T01:05:51.097Z,975
2023-03-21T01:06:51.088Z,815
2023-03-21T01:07:51.020Z,811
2023-03-21T01:09:51.282Z,890
2023-03-21T01:10:51.094Z,785
2023-03-21T01:11:51.076Z,718
2023-03-21T01:12:51.041Z,673
2023-03-21T01:14:51.221Z,773
2023-03-21T01:15:51.056Z,793
2023-03-21T01:16:51.042Z,782
2023-03-21T01:17:51.027Z,972
2023-03-21T01:19:52.352Z,843
2023-03-21T01:20:51.119Z,941
2023-03-21T01:21:51.048Z,796
2023-03-21T01:22:51.074Z,762
2023-03-21T01:24:56.847Z,742
2023-03-21T01:25:51.090Z,800
2023-03-21T01:26:51.106Z,1054
2023-03-21T01:27:51.045Z,816
2023-03-21T01:29:51.227Z,805
2023-03-21T01:30:51.040Z,851
2023-03-21T01:31:51.083Z,777
2023-03-21T01:32:51.097Z,797
2023-03-21T01:34:51.249Z,785
2023-03-21T01:35:57.543Z,920
2023-03-21T01:36:51.204Z,804
2023-03-21T01:37:51.106Z,808
2023-03-21T01:39:51.242Z,962
2023-03-21T01:40:51.096Z,826
2023-03-21T01:41:51.099Z,996
2023-03-21T01:42:51.082Z,930
2023-03-21T01:44:51.273Z,809
2023-03-21T01:45:51.089Z,779
2023-03-21T01:47:03.855Z,996
2023-03-21T01:47:51.086Z,1121
2023-03-21T01:49:51.244Z,796
2023-03-21T01:50:51.101Z,774
2023-03-21T01:51:51.795Z,834
2023-03-21T01:52:51.114Z,960
2023-03-21T01:54:51.244Z,960
2023-03-21T01:55:51.125Z,793
2023-03-21T01:56:51.108Z,1105
2023-03-21T01:58:04.188Z,704
2023-03-21T01:59:51.281Z,803
2023-03-21T02:00:51.067Z,916
2023-03-21T02:01:51.068Z,751
2023-03-21T02:02:52.103Z,830
2023-03-21T02:04:51.372Z,751
2023-03-21T02:05:51.045Z,785
2023-03-21T02:06:51.162Z,972
2023-03-21T02:07:51.105Z,767
2023-03-21T02:09:51.287Z,791
2023-03-21T02:10:51.079Z,819
2023-03-21T02:11:51.092Z,697
2023-03-21T02:12:51.138Z,726
2023-03-21T02:14:51.223Z,665
2023-03-21T02:15:51.051Z,731
2023-03-21T02:16:51.116Z,753
2023-03-21T02:17:51.057Z,891
2023-03-21T02:19:53.622Z,760
2023-03-21T02:20:51.169Z,996
2023-03-21T02:21:51.060Z,977
2023-03-21T02:22:51.078Z,997
2023-03-21T02:24:59.482Z,967
2023-03-21T02:25:51.099Z,935
2023-03-21T02:26:58.040Z,783
2023-03-21T02:27:51.047Z,796
2023-03-21T02:29:51.262Z,791
2023-03-21T02:30:52.207Z,815
2023-03-21T02:31:51.172Z,862
2023-03-21T02:32:51.093Z,847
2023-03-21T02:33:56.216Z,835
2023-03-21T02:35:54.283Z,800
2023-03-21T02:36:52.320Z,914
2023-03-21T02:37:58.403Z,971
2023-03-21T02:39:51.230Z,799
2023-03-21T02:40:51.120Z,956
2023-03-21T02:41:51.110Z,830
2023-03-21T02:42:59.362Z,830
2023-03-21T02:43:51.062Z,821
2023-03-21T02:46:00.659Z,839
2023-03-21T02:47:05.180Z,1057
2023-03-21T02:47:58.482Z,1054
2023-03-21T02:49:58.664Z,996
2023-03-21T02:50:58.435Z,844
2023-03-21T02:52:05.262Z,1004
2023-03-21T02:52:58.443Z,975
2023-03-21T02:54:58.628Z,838
2023-03-21T02:55:58.463Z,817
2023-03-21T02:56:58.442Z,795
2023-03-21T02:58:04.034Z,812
2023-03-21T03:00:02.558Z,781
2023-03-21T03:00:58.454Z,1039
2023-03-21T03:01:58.491Z,986
2023-03-21T03:03:08.595Z,1018
2023-03-21T03:04:58.881Z,847
2023-03-21T03:05:58.478Z,1013
2023-03-21T03:06:58.473Z,1062
2023-03-21T03:07:58.470Z,1009
2023-03-21T03:09:58.632Z,998
2023-03-21T03:10:58.473Z,847
2023-03-21T03:11:58.485Z,1018
2023-03-21T03:12:58.459Z,853
2023-03-21T03:15:03.302Z,882
2023-03-21T03:15:58.501Z,1125
2023-03-21T03:16:58.475Z,1125
2023-03-21T03:17:58.461Z,1040
2023-03-21T03:20:01.995Z,1039
2023-03-21T03:20:58.455Z,1141
2023-03-21T03:21:58.477Z,934
2023-03-21T03:22:58.490Z,942
2023-03-21T03:25:01.117Z,882
2023-03-21T03:25:58.498Z,835
2023-03-21T03:26:58.476Z,1039
2023-03-21T03:27:58.480Z,1071
2023-03-21T03:29:58.703Z,891
2023-03-21T03:31:08.416Z,882
2023-03-21T03:31:58.533Z,835
2023-03-21T03:32:58.473Z,805
2023-03-21T03:34:58.650Z,833
2023-03-21T03:36:04.806Z,946
2023-03-21T03:36:58.518Z,946
2023-03-21T03:37:58.479Z,1201
2023-03-21T03:39:58.755Z,993
2023-03-21T03:41:01.345Z,899
2023-03-21T03:42:12.347Z,1101
2023-03-21T03:43:02.897Z,935
2023-03-21T03:45:00.147Z,1156
2023-03-21T03:46:00.150Z,1102
2023-03-21T03:46:59.593Z,905
2023-03-21T03:47:58.537Z,899
2023-03-21T03:49:58.740Z,960
2023-03-21T03:50:58.507Z,955
2023-03-21T03:51:58.582Z,961
2023-03-21T03:53:01.232Z,960
2023-03-21T03:54:58.661Z,1124
2023-03-21T03:55:58.537Z,1170
2023-03-21T03:56:58.498Z,1002
2023-03-21T03:57:58.496Z,988
2023-03-21T03:59:58.671Z,981
2023-03-21T04:00:58.496Z,1002
2023-03-21T04:01:58.505Z,1135
2023-03-21T04:02:58.525Z,967
2023-03-21T04:04:10.544Z,1257
2023-03-21T04:04:59.683Z,1282
2023-03-21T04:05:58.493Z,1043
2023-03-21T04:06:58.472Z,1057
2023-03-21T04:07:58.493Z,1034
2023-03-21T04:09:58.692Z,1244
2023-03-21T04:10:58.516Z,1079
2023-03-21T04:11:58.500Z,1054
2023-03-21T04:12:58.487Z,1062
2023-03-21T04:15:08.086Z,1061
2023-03-21T04:15:58.542Z,1065
2023-03-21T04:16:58.479Z,1144
2023-03-21T04:17:58.515Z,1293
2023-03-21T04:20:10.574Z,1277
2023-03-21T04:20:58.530Z,1107
2023-03-21T04:21:58.505Z,1150
2023-03-21T04:22:58.497Z,1191
2023-03-21T04:25:00.494Z,1127
2023-03-21T04:25:58.525Z,1345
2023-03-21T04:26:58.531Z,1331
2023-03-21T04:27:58.519Z,1121
2023-03-21T04:29:58.672Z,1153
2023-03-21T04:31:03.420Z,1107
2023-03-21T04:31:58.522Z,1324
2023-03-21T04:32:58.507Z,1105
2023-03-21T04:34:58.703Z,1105
2023-03-21T04:35:58.600Z,1094
2023-03-21T04:36:58.519Z,1331
2023-03-21T04:37:58.522Z,1309
2023-03-21T04:39:58.721Z,1170
2023-03-21T04:40:58.524Z,1096
2023-03-21T04:41:58.509Z,1136
2023-03-21T04:42:58.518Z,1350
2023-03-21T04:44:58.705Z,1248
2023-03-21T04:45:58.539Z,1361
2023-03-21T04:46:58.534Z,1147
2023-03-21T04:47:58.550Z,1359
2023-03-21T04:49:58.712Z,1130
2023-03-21T04:50:58.528Z,1105
2023-03-21T04:51:58.511Z,1389
2023-03-21T04:52:58.506Z,1453
2023-03-21T04:54:58.714Z,1359
2023-03-21T04:55:58.498Z,1198
2023-03-21T04:56:58.504Z,1465
2023-03-21T04:57:58.527Z,1233
2023-03-21T04:59:58.726Z,1524
2023-03-21T05:00:58.545Z,1150
2023-03-21T05:01:58.731Z,1368
2023-03-21T05:02:58.520Z,1153
2023-03-21T05:04:58.716Z,1340
2023-03-21T05:05:58.531Z,1142
2023-03-21T05:06:58.551Z,1095
2023-03-21T05:07:58.534Z,1138
2023-03-21T05:10:00.040Z,1138
2023-03-21T05:10:58.528Z,1364
2023-03-21T05:11:58.499Z,1150
2023-03-21T05:12:58.497Z,1142
2023-03-21T05:14:58.716Z,1173
2023-03-21T05:15:58.544Z,1130
2023-03-21T05:16:58.603Z,1345
2023-03-21T05:17:58.532Z,1317
2023-03-21T05:19:58.726Z,1148
2023-03-21T05:20:58.541Z,1364
2023-03-21T05:21:58.524Z,1040
2023-03-21T05:22:58.501Z,1345
2023-03-21T05:24:58.714Z,1165
2023-03-21T05:25:58.516Z,1340
2023-03-21T05:27:00.050Z,1105
2023-03-21T05:27:58.537Z,1350
2023-03-21T05:29:58.716Z,1331
2023-03-21T05:30:58.554Z,1165
2023-03-21T05:31:58.507Z,1368
2023-03-21T05:32:58.556Z,1094
2023-03-21T05:34:58.739Z,1148
2023-03-21T05:35:58.564Z,1395
2023-03-21T05:36:58.560Z,1060
2023-03-21T05:37:58.540Z,1173
2023-03-21T05:39:58.716Z,1343
2023-03-21T05:40:58.543Z,1125
2023-03-21T05:41:58.559Z,1395
2023-03-21T05:42:58.526Z,1165
2023-03-21T05:44:58.752Z,1439
2023-03-21T05:45:58.583Z,1379
2023-03-21T05:46:58.539Z,1357
2023-03-21T05:47:58.603Z,1198
2023-03-21T05:49:58.739Z,1012
2023-03-21T05:50:58.561Z,1340
2023-03-21T05:51:58.539Z,1333
2023-03-21T05:52:58.547Z,1074
2023-03-21T05:54:58.716Z,1170
2023-03-21T05:55:58.553Z,1088
2023-03-21T05:56:58.544Z,1329
2023-03-21T05:57:58.518Z,1080
2023-03-21T05:58:58.545Z,1127
2023-03-21T05:59:59.391Z,1188
2023-03-21T06:01:31.152Z,1084
2023-03-21T06:02:31.020Z,1350
2023-03-21T06:03:30.994Z,1074
2023-03-21T06:06:33.061Z,1255
2023-03-21T06:07:31.803Z,1180
2023-03-21T06:10:17.525Z,1336
2023-03-21T06:11:17.544Z,1110
2023-03-21T06:12:17.523Z,1110
2023-03-21T06:14:17.721Z,1361
2023-03-21T06:15:17.582Z,1096
2023-03-21T06:16:17.534Z,1091
2023-03-21T06:17:17.520Z,1275
2023-03-21T06:19:17.699Z,1054
2023-03-21T06:20:17.592Z,1074
2023-03-21T06:21:17.513Z,1051
2023-03-21T06:22:17.540Z,1284
2023-03-21T06:24:17.753Z,1397
2023-03-21T06:25:17.587Z,1259
2023-03-21T06:26:17.596Z,1255
2023-03-21T06:27:17.619Z,1295
2023-03-21T06:29:17.726Z,1411
2023-03-21T06:30:17.542Z,1371
2023-03-21T06:31:17.636Z,1376
2023-03-21T06:32:17.529Z,1411
2023-03-21T06:34:17.694Z,1361
2023-03-21T06:35:17.531Z,1060
2023-03-21T06:36:17.560Z,1102
2023-03-21T06:37:17.594Z,1248
2023-03-21T06:39:17.727Z,1340
2023-03-21T06:40:17.555Z,1361
2023-03-21T06:41:17.588Z,1263
2023-03-21T06:42:17.567Z,1035
2023-03-21T06:44:17.738Z,1295
2023-03-21T06:45:17.531Z,1315
2023-03-21T06:46:17.613Z,1094
2023-03-21T06:47:17.604Z,1371
2023-03-21T06:49:17.743Z,1105
2023-03-21T06:50:17.597Z,1282
2023-03-21T06:51:17.541Z,1017
2023-03-21T06:52:17.602Z,1057
2023-03-21T06:54:17.750Z,1400
2023-03-21T06:55:17.544Z,1051
2023-03-21T06:56:17.621Z,1231
2023-03-21T06:57:17.602Z,1051
2023-03-21T06:59:17.736Z,1150
2023-03-21T07:00:17.607Z,1231
2023-03-21T07:01:17.617Z,1008
2023-03-21T07:02:19.084Z,1045
2023-03-21T07:04:18.027Z,1046
2023-03-21T07:05:17.849Z,1268
2023-03-21T07:06:17.926Z,1051
2023-03-21T07:08:25.540Z,1257
2023-03-21T07:09:25.550Z,1032
2023-03-21T07:10:25.583Z,1043
2023-03-21T07:12:26.831Z,1275
2023-03-21T07:13:26.757Z,1277
2023-03-21T07:18:22.676Z,1068
2023-03-21T07:19:27.533Z,1209
2023-03-21T07:22:26.194Z,1544
2023-03-21T07:24:32.729Z,1008
2023-03-21T07:25:32.878Z,1008
2023-03-21T07:26:36.044Z,1029
2023-03-21T07:27:33.305Z,1257
2023-03-21T07:28:53.751Z,1160
2023-03-21T07:29:56.013Z,957
2023-03-21T07:34:00.958Z,955
2023-03-21T07:35:01.841Z,993
2023-03-21T07:36:01.973Z,1436
2023-03-21T07:39:01.109Z,1229
2023-03-21T07:40:01.037Z,1209
2023-03-21T07:42:01.155Z,961
2023-03-21T07:44:01.105Z,1018
2023-03-21T07:45:01.025Z,992
2023-03-21T07:46:02.286Z,1019
2023-03-21T07:47:02.837Z,1216
2023-03-21T07:49:35.454Z,1222
2023-03-21T07:50:35.467Z,950
2023-03-21T07:51:35.276Z,967
2023-03-21T07:55:39.173Z,1034
2023-03-21T07:56:41.249Z,947
2023-03-21T07:57:44.745Z,933
2023-03-21T07:58:38.797Z,1154
2023-03-21T07:59:51.601Z,1150
2023-03-21T08:01:45.443Z,945
2023-03-21T08:04:45.744Z,916
2023-03-21T08:05:45.525Z,1259
2023-03-21T08:06:45.543Z,1113
2023-03-21T08:07:45.518Z,885
2023-03-21T08:09:45.752Z,1084
2023-03-21T08:10:45.517Z,881
2023-03-21T08:11:45.512Z,1130
2023-03-21T08:12:45.517Z,1130
2023-03-21T08:14:45.667Z,919
2023-03-21T08:15:45.517Z,872
2023-03-21T08:16:45.624Z,1085
2023-03-21T08:17:45.546Z,1054
2023-03-21T08:19:45.675Z,1051
2023-03-21T08:20:45.573Z,881
2023-03-21T08:21:45.542Z,1061
2023-03-21T08:22:45.683Z,867
2023-03-21T08:24:45.717Z,952
2023-03-21T08:25:45.552Z,1105
2023-03-21T08:26:45.544Z,1074
2023-03-21T08:27:45.555Z,882
2023-03-21T08:29:45.743Z,1080
2023-03-21T08:30:45.615Z,853
2023-03-21T08:31:45.548Z,1065
2023-03-21T08:32:45.522Z,863
2023-03-21T08:34:45.761Z,908
2023-03-21T08:35:45.739Z,970
2023-03-21T08:36:45.558Z,882
2023-03-21T08:37:45.562Z,1068
2023-03-21T08:39:45.732Z,945
2023-03-21T08:40:45.523Z,847
2023-03-21T08:41:45.545Z,846
2023-03-21T08:42:45.522Z,1012
2023-03-21T08:44:45.727Z,1019
2023-03-21T08:45:47.895Z,873
2023-03-21T08:46:45.597Z,1065
2023-03-21T08:47:45.587Z,876
2023-03-21T08:48:46.191Z,825
2023-03-21T08:50:56.566Z,1004
2023-03-21T08:52:00.598Z,896
2023-03-21T08:56:37.442Z,896
2023-03-21T08:57:35.857Z,1050
2023-03-21T09:01:36.403Z,778
2023-03-21T09:07:36.588Z,970
2023-03-21T09:08:36.408Z,793
2023-03-21T09:09:36.280Z,760
2023-03-21T09:10:36.285Z,983
2023-03-21T09:11:36.472Z,972
2023-03-21T09:12:36.578Z,962
2023-03-21T09:13:36.280Z,817
2023-03-21T09:14:36.267Z,807
2023-03-21T09:15:36.477Z,993
2023-03-21T09:16:36.304Z,847
2023-03-21T09:18:01.061Z,1043
2023-03-21T09:19:00.873Z,826
2023-03-21T09:20:00.916Z,975
2023-03-21T09:21:00.867Z,946
2023-03-21T09:27:13.528Z,976
2023-03-21T09:31:12.777Z,1017
2023-03-21T09:32:13.343Z,1012
2023-03-21T09:33:12.887Z,838
2023-03-21T09:35:12.213Z,955
2023-03-21T09:36:12.037Z,1008
2023-03-21T09:37:13.249Z,1056
2023-03-21T09:38:12.040Z,853
2023-03-21T09:41:09.303Z,1073
2023-03-21T09:43:47.262Z,1085
2023-03-21T09:44:44.252Z,1049
2023-03-21T09:45:43.728Z,867
2023-03-21T09:47:43.444Z,862
2023-03-21T09:51:43.656Z,829
2023-03-21T09:52:43.529Z,619
2023-03-21T09:53:43.459Z,882
2023-03-21T09:54:43.496Z,710
2023-03-21T09:55:43.487Z,745
2023-03-21T09:56:44.166Z,719
2023-03-21T09:57:43.477Z,930
2023-03-21T09:58:43.704Z,763
2023-03-21T10:08:49.161Z,718
2023-03-21T10:09:46.688Z,901
2023-03-21T10:10:46.737Z,921
2023-03-21T10:11:46.699Z,820
2023-03-21T10:13:46.901Z,729
2023-03-21T10:14:46.736Z,698
2023-03-21T10:15:46.749Z,694
2023-03-21T10:16:46.791Z,812
2023-03-21T10:18:46.892Z,972
2023-03-21T10:19:46.694Z,748
2023-03-21T10:20:46.677Z,633
2023-03-21T10:25:47.576Z,587
2023-03-21T10:26:47.592Z,598
2023-03-21T10:27:47.523Z,717
2023-03-21T10:29:47.718Z,567
2023-03-21T10:30:47.605Z,692
2023-03-21T10:33:21.004Z,712
2023-03-21T10:34:20.827Z,565
2023-03-21T10:35:20.692Z,587
2023-03-21T10:36:20.718Z,598
2023-03-21T10:37:20.827Z,851
2023-03-21T10:39:21.279Z,506
2023-03-21T10:40:21.069Z,692
2023-03-21T10:41:21.075Z,688
2023-03-21T10:42:20.996Z,580
2023-03-21T10:44:21.239Z,584
2023-03-21T10:45:20.957Z,616
2023-03-21T10:49:22.972Z,628
2023-03-21T10:50:33.637Z,619
2023-03-21T10:58:02.076Z,769
2023-03-21T11:01:04.554Z,694
2023-03-21T11:02:04.477Z,694
2023-03-21T11:03:04.501Z,727
2023-03-21T11:05:04.721Z,708
2023-03-21T11:06:04.569Z,696
2023-03-21T11:08:35.830Z,659
2023-03-21T11:09:35.650Z,629
2023-03-21T11:10:35.706Z,553
2023-03-21T11:11:35.707Z,570
2023-03-21T11:13:35.838Z,680
2023-03-21T11:14:35.731Z,611
2023-03-21T11:15:35.825Z,763
2023-03-21T11:16:35.725Z,642
2023-03-21T11:18:35.836Z,650
2023-03-21T11:19:35.668Z,624
2023-03-21T11:20:35.674Z,629
2023-03-21T11:21:35.717Z,649
2023-03-21T11:22:35.775Z,629
2023-03-21T11:24:24.004Z,700
2023-03-21T11:25:23.856Z,752
2023-03-21T11:26:23.820Z,594
2023-03-21T11:27:23.851Z,594
2023-03-21T11:29:23.961Z,752
2023-03-21T11:30:24.022Z,781
2023-03-21T11:31:55.192Z,786
2023-03-21T11:32:55.008Z,820
2023-03-21T11:33:55.014Z,825
2023-03-21T11:34:55.012Z,799
2023-03-21T11:36:55.244Z,755
2023-03-21T11:37:55.010Z,581
2023-03-21T11:38:55.042Z,719
2023-03-21T11:39:54.978Z,669
2023-03-21T11:41:55.208Z,526
2023-03-21T11:42:54.994Z,700
2023-03-21T11:43:54.990Z,652
2023-03-21T11:44:54.976Z,650
2023-03-21T11:46:55.202Z,614
2023-03-21T11:47:55.063Z,460
2023-03-21T11:48:55.010Z,530
2023-03-21T11:50:01.716Z,423
2023-03-21T11:51:55.178Z,485
2023-03-21T11:52:55.011Z,466
2023-03-21T11:53:55.016Z,472
2023-03-21T11:54:55.001Z,438
2023-03-21T11:56:55.183Z,462
2023-03-21T11:57:56.357Z,434
2023-03-21T11:58:55.006Z,457
2023-03-21T11:59:54.981Z,461
2023-03-21T12:02:06.624Z,436
2023-03-21T12:03:57.196Z,435
2023-03-21T12:09:36.959Z,456
2023-03-21T12:10:38.012Z,438
2023-03-21T12:11:36.769Z,448
2023-03-21T12:12:39.531Z,457
2023-03-21T12:14:37.677Z,400
2023-03-21T12:16:14.531Z,408
2023-03-21T12:17:13.316Z,408
2023-03-21T12:19:13.846Z,503
2023-03-21T12:20:48.259Z,453
2023-03-21T12:21:47.957Z,476
2023-03-21T12:22:48.061Z,526
2023-03-21T12:23:48.002Z,434
2023-03-21T12:25:48.231Z,418
2023-03-21T12:26:48.088Z,520
2023-03-21T12:27:47.957Z,505
2023-03-21T12:28:47.959Z,501
2023-03-21T12:30:48.242Z,442
2023-03-21T12:35:00.297Z,436
2023-03-21T12:36:00.372Z,436
2023-03-21T12:38:00.550Z,436
2023-03-21T12:39:00.323Z,409
2023-03-21T12:40:02.266Z,409
2023-03-21T12:41:42.609Z,409
2023-03-21T12:42:41.160Z,427
2023-03-21T12:43:41.118Z,427
2023-03-21T12:44:41.135Z,427
2023-03-21T12:46:41.336Z,427
2023-03-21T12:47:41.172Z,455
2023-03-21T12:48:41.086Z,455
2023-03-21T12:49:41.096Z,455
2023-03-21T12:51:41.307Z,455
2023-03-21T12:52:41.155Z,450
2023-03-21T12:53:41.160Z,450
2023-03-21T12:54:41.209Z,450
2023-03-21T12:56:41.255Z,450
2023-03-21T12:57:47.672Z,407
2023-03-21T12:58:42.947Z,407
2023-03-21T12:59:41.243Z,407
2023-03-21T13:01:41.374Z,407
2023-03-21T13:02:43.258Z,400
2023-03-21T13:04:56.731Z,400
2023-03-21T13:07:00.115Z,400
2023-03-21T13:08:05.015Z,400
2023-03-21T13:12:54.844Z,400
2023-03-21T13:13:54.654Z,400
2023-03-21T13:14:54.659Z,427
2023-03-21T13:16:54.923Z,400
2023-03-21T13:17:54.676Z,472
2023-03-21T13:18:54.761Z,416
2023-03-21T13:19:54.654Z,416
2023-03-21T13:21:54.913Z,416
2023-03-21T13:23:55.230Z,514
2023-03-21T13:24:55.073Z,524
2023-03-21T13:25:55.052Z,555
2023-03-21T13:26:55.050Z,523
2023-03-21T13:28:55.240Z,435
2023-03-21T13:29:55.210Z,638
2023-03-21T13:30:56.760Z,659
2023-03-21T13:34:06.965Z,577
2023-03-21T13:43:45.461Z,891
2023-03-21T13:51:40.359Z,1238
2023-03-21T13:52:40.174Z,1128
2023-03-21T13:53:40.228Z,1525
2023-03-21T13:54:40.153Z,791
2023-03-21T13:56:40.389Z,1081
2023-03-21T13:57:40.099Z,1110
2023-03-21T13:58:40.180Z,1131
2023-03-21T14:19:45.900Z,927
2023-03-21T14:21:31.462Z,712
2023-03-21T14:25:33.991Z,806
2023-03-21T14:26:30.315Z,726
2023-03-21T14:27:30.306Z,674
2023-03-21T14:28:30.298Z,902
2023-03-21T14:30:30.584Z,885
2023-03-21T14:31:30.460Z,615
2023-03-21T14:32:31.435Z,815
2023-03-21T14:33:31.540Z,768
2023-03-21T14:35:33.000Z,706
2023-03-21T14:36:31.607Z,1281
2023-03-21T15:05:01.776Z,1215
2023-03-21T15:06:01.537Z,1462
2023-03-21T15:07:01.599Z,1090
2023-03-21T15:08:01.528Z,1095
2023-03-21T15:10:01.722Z,1507
2023-03-21T15:11:07.083Z,1125
2023-03-21T15:12:01.540Z,1389
2023-03-21T15:13:01.583Z,1525
2023-03-21T15:14:01.615Z,1181
2023-03-21T15:15:01.816Z,1220
2023-03-21T15:16:01.626Z,1517
2023-03-21T15:17:01.649Z,1482
2023-03-21T15:18:01.591Z,1616
2023-03-21T15:20:01.749Z,1643
2023-03-21T15:21:01.557Z,1231
2023-03-21T15:22:01.560Z,1669
2023-03-21T15:23:01.591Z,1215
2023-03-21T15:25:01.713Z,1171
2023-03-21T15:26:01.534Z,1220
2023-03-21T15:27:01.554Z,1650
2023-03-21T15:28:01.654Z,1749
2023-03-21T15:30:01.721Z,1815
2023-03-21T15:31:01.648Z,1397
2023-03-21T15:32:01.625Z,1845
2023-03-21T15:33:01.541Z,1933
2023-03-21T15:35:01.754Z,1482
2023-03-21T15:36:01.619Z,1285
2023-03-21T15:37:01.658Z,1768
2023-03-21T15:38:01.611Z,1723
2023-03-21T15:39:01.599Z,1825
2023-03-21T15:40:01.717Z,1973
2023-03-21T15:41:01.527Z,1798
2023-03-21T15:42:01.608Z,1356
2023-03-21T15:43:01.529Z,1805
2023-03-21T15:44:01.614Z,1345
2023-03-21T15:45:01.749Z,1815
2023-03-21T15:46:01.581Z,1393
2023-03-21T15:47:01.556Z,1416
2023-03-21T15:48:01.656Z,1470
2023-03-21T15:49:01.532Z,1513
2023-03-21T15:50:01.704Z,1534
2023-03-21T15:51:01.614Z,1973
2023-03-21T15:52:01.553Z,1465
2023-03-21T15:53:01.539Z,1495
2023-03-21T15:54:01.594Z,1499
2023-03-21T15:55:01.767Z,1955
2023-03-21T15:56:01.527Z,1397
2023-03-21T15:57:01.598Z,2001
2023-03-21T15:58:01.583Z,1973
2023-03-21T15:59:01.591Z,2170
2023-03-21T16:00:01.724Z,2128
2023-03-21T16:01:01.606Z,1782
2023-03-21T16:02:01.582Z,2318
2023-03-21T16:03:01.581Z,1792
2023-03-21T16:05:01.754Z,1825
2023-03-21T16:06:01.537Z,1728
2023-03-21T16:07:01.621Z,2338
2023-03-21T16:08:01.565Z,2367
2023-03-21T16:10:01.727Z,2414
2023-03-21T16:11:01.537Z,2704
2023-03-21T16:12:01.599Z,2056
2023-03-21T16:13:01.574Z,2775
2023-03-21T16:14:01.555Z,2220
2023-03-21T16:15:01.730Z,2905
2023-03-21T16:16:01.634Z,2140
2023-03-21T16:17:01.555Z,2162
2023-03-21T16:18:01.540Z,2921
2023-03-21T16:22:04.994Z,2946
2023-03-21T16:23:37.583Z,2990
2023-03-21T16:24:42.284Z,2979
2023-03-21T16:25:37.376Z,3023
2023-03-21T16:26:38.495Z,3122
2023-03-21T16:27:38.251Z,3086
2023-03-21T16:29:08.165Z,2489
2023-03-21T16:30:10.180Z,4452
2023-03-21T16:31:09.295Z,2480
2023-03-21T16:32:09.511Z,3403
2023-03-21T16:35:13.619Z,3158
2023-03-21T16:36:14.965Z,2509
2023-03-21T16:39:12.580Z,1916
2023-03-21T16:40:12.442Z,2480
2023-03-21T16:41:12.383Z,2560
2023-03-21T16:42:12.361Z,3421
2023-03-21T16:44:12.549Z,2285
2023-03-21T16:45:12.359Z,3315
2023-03-21T16:46:12.579Z,2388
2023-03-21T16:47:12.369Z,2473
2023-03-21T16:48:12.528Z,3305
2023-03-21T16:49:12.548Z,2551
2023-03-21T16:50:12.351Z,2359
2023-03-21T16:51:12.379Z,2367
2023-03-21T16:52:12.357Z,3057
2023-03-21T16:54:12.520Z,3086
2023-03-21T16:55:12.257Z,2394
2023-03-21T16:56:12.468Z,3356
2023-03-21T16:57:12.357Z,3356
2023-03-21T16:59:12.531Z,2847
2023-03-21T17:00:12.388Z,2839
2023-03-21T17:01:12.279Z,2689
2023-03-21T17:02:12.258Z,3476
2023-03-21T17:04:12.579Z,2659
2023-03-21T17:05:12.308Z,3945
2023-03-21T17:06:12.354Z,4784
2023-03-21T17:07:12.279Z,3835
2023-03-21T17:09:12.586Z,3296
2023-03-21T17:10:12.370Z,3744
2023-03-21T17:11:12.388Z,3586
2023-03-21T17:12:12.401Z,3702
2023-03-21T17:14:12.530Z,2815
2023-03-21T17:15:12.374Z,3744
2023-03-21T17:16:12.527Z,3802
2023-03-21T17:17:12.716Z,3553
2023-03-21T17:19:12.663Z,3586
2023-03-21T17:20:15.126Z,2962
2023-03-21T17:21:12.510Z,4106
2023-03-21T17:22:14.604Z,2913
2023-03-21T17:24:12.609Z,2872
2023-03-21T17:25:15.264Z,2710
2023-03-21T17:26:13.486Z,2659
2023-03-21T17:27:13.181Z,3791
2023-03-21T17:28:12.456Z,2683
2023-03-21T17:29:17.186Z,2775
2023-03-21T17:30:17.657Z,2970
2023-03-21T17:32:12.386Z,4037
2023-03-21T17:34:14.689Z,3515
2023-03-21T17:35:14.454Z,3553
2023-03-21T17:36:47.116Z,3466
2023-03-21T17:37:47.121Z,3843
2023-03-21T17:38:47.010Z,4134
2023-03-21T17:39:47.894Z,4072
2023-03-21T17:40:48.974Z,3744
2023-03-21T17:41:48.949Z,2905
2023-03-21T17:42:51.063Z,3898
2023-03-21T17:44:00.358Z,4106
2023-03-21T17:44:59.655Z,3104
2023-03-21T17:46:59.967Z,3057
2023-03-21T17:47:59.675Z,2913
2023-03-21T17:48:59.643Z,2872
2023-03-21T17:49:59.665Z,3934
2023-03-21T17:51:59.989Z,2905
2023-03-21T17:52:59.660Z,3843
2023-03-21T17:53:59.664Z,3077
2023-03-21T17:54:59.740Z,3887
2023-03-21T17:56:59.918Z,4072
2023-03-21T17:57:59.627Z,3176
2023-03-21T17:58:59.660Z,4323
2023-03-21T17:59:59.720Z,4478
2023-03-21T18:01:59.984Z,4146
2023-03-21T18:02:59.668Z,3979
2023-03-21T18:03:59.672Z,5778
2023-03-21T18:04:59.769Z,4402
2023-03-21T18:07:00.841Z,3167
2023-03-21T18:08:12.492Z,4492
2023-03-21T18:09:00.432Z,3394
2023-03-21T18:10:00.916Z,3268
2023-03-21T18:32:08.617Z,5016
2023-03-21T18:37:27.419Z,2704
2023-03-21T18:44:01.899Z,3231
2023-03-21T18:44:56.033Z,4465
2023-03-21T18:45:55.984Z,3268
2023-03-21T18:53:59.023Z,3249
2023-03-21T19:12:03.797Z,4716
2023-03-21T19:30:10.565Z,4855
2023-03-21T19:39:27.486Z,3802
2023-03-21T19:51:26.149Z,3968
2023-03-21T19:57:39.038Z,4083
2023-03-21T20:05:38.532Z,4214
2023-03-21T20:06:38.384Z,7992
2023-03-21T20:07:38.402Z,5739
2023-03-21T20:09:05.220Z,4652
2023-03-21T20:10:38.746Z,5889
2023-03-21T20:11:38.379Z,6059
2023-03-21T20:12:38.418Z,4282
2023-03-21T20:13:38.426Z,4079
2023-03-21T20:15:45.797Z,5451
2023-03-21T20:16:38.397Z,5222
2023-03-21T20:17:38.390Z,3810
2023-03-21T20:18:38.375Z,3824
2023-03-21T20:19:38.383Z,5393
2023-03-21T20:20:38.802Z,3810
2023-03-21T20:21:48.439Z,5918
2023-03-21T20:23:05.031Z,4331
2023-03-21T20:23:38.507Z,4331
2023-03-21T20:25:38.569Z,4230
2023-03-21T20:26:38.371Z,3865
2023-03-21T20:27:39.188Z,5017
2023-03-21T20:28:38.410Z,5136
2023-03-21T20:30:07.854Z,5267
2023-03-21T20:30:38.764Z,3765
2023-03-21T20:31:38.449Z,3909
2023-03-21T20:32:38.378Z,5182
2023-03-21T20:33:38.361Z,5297
2023-03-21T20:34:38.374Z,5121
2023-03-21T20:36:23.937Z,3824
2023-03-21T20:36:40.649Z,4053
2023-03-21T20:37:38.419Z,3649
2023-03-21T20:38:38.375Z,4977
2023-03-21T20:39:38.421Z,5060
2023-03-21T20:40:38.645Z,5182
2023-03-21T20:41:38.367Z,3884
2023-03-21T20:42:38.797Z,5582
2023-03-21T20:44:28.433Z,4142
2023-03-21T20:45:38.636Z,5222
2023-03-21T20:46:38.532Z,5087